Time;durP1;ratioP1;P1;durP2;ratioP2;P2;SDS_P1;SDS_P2;PMS_P1;PMS_P2;Temp;Humidity;BMP_temperature;BMP_pressure;BME280_temperature;BME280_humidity;BME280_pressure;Samples;Min_cycle;Max_cycle;Signal;HPM_P1;HPM_P2
2023/06/21 00:01:43;;;;;;;11.18;5.47;;;20.00;99.90;;;;;;5039854;28;20044;-73
2023/06/21 00:04:09;;;;;;;10.85;6.05;;;20.00;99.90;;;;;;5070624;28;20040;-73
2023/06/21 00:06:35;;;;;;;10.75;5.57;;;19.90;99.90;;;;;;5054146;28;21630;-73
2023/06/21 00:09:03;;;;;;;8.68;5.25;;;19.90;99.90;;;;;;5042014;28;20041;-74
2023/06/21 00:11:29;;;;;;;10.00;5.28;;;19.90;99.90;;;;;;5051813;28;20516;-73
2023/06/21 00:13:55;;;;;;;10.27;5.60;;;19.90;99.90;;;;;;5073465;28;20024;-73
2023/06/21 00:16:22;;;;;;;11.50;5.97;;;19.90;99.90;;;;;;5059693;28;20482;-73
2023/06/21 00:18:47;;;;;;;8.43;4.95;;;19.90;99.90;;;;;;5057783;28;20055;-73
2023/06/21 00:21:13;;;;;;;12.52;6.15;;;19.80;99.90;;;;;;5073740;28;20037;-73
2023/06/21 00:23:41;;;;;;;11.85;5.97;;;19.80;99.90;;;;;;5070113;28;20086;-73
2023/06/21 00:26:07;;;;;;;10.60;5.88;;;19.80;99.90;;;;;;5058045;28;20060;-73
2023/06/21 00:28:33;;;;;;;12.50;5.70;;;19.80;99.90;;;;;;5058780;28;20024;-73
2023/06/21 00:30:58;;;;;;;10.02;5.63;;;19.80;99.90;;;;;;5064126;28;20036;-73
2023/06/21 00:33:24;;;;;;;10.52;5.45;;;19.80;99.90;;;;;;5069458;28;20035;-73
2023/06/21 00:35:50;;;;;;;9.48;5.97;;;19.80;99.90;;;;;;5061742;28;20041;-73
2023/06/21 00:38:15;;;;;;;9.88;5.15;;;19.70;99.90;;;;;;5069944;28;20186;-74
2023/06/21 00:40:41;;;;;;;10.73;5.47;;;19.70;99.90;;;;;;5066131;28;20056;-74
2023/06/21 00:43:07;;;;;;;11.52;5.35;;;19.70;99.90;;;;;;5067458;28;20049;-73
2023/06/21 00:45:38;;;;;;;9.63;5.78;;;19.70;99.90;;;;;;5052579;28;20036;-73
2023/06/21 00:48:03;;;;;;;11.80;5.90;;;19.70;99.90;;;;;;5076698;28;20266;-73
2023/06/21 00:50:29;;;;;;;11.25;6.22;;;19.70;99.90;;;;;;5063695;28;20187;-73
2023/06/21 00:52:55;;;;;;;9.10;4.88;;;19.60;99.90;;;;;;5065145;28;20063;-73
2023/06/21 00:55:23;;;;;;;11.15;5.95;;;19.60;99.90;;;;;;5052321;28;20044;-73
2023/06/21 00:57:49;;;;;;;10.48;5.85;;;19.60;99.90;;;;;;5068777;28;20108;-73
2023/06/21 01:00:22;;;;;;;10.85;5.78;;;19.60;99.90;;;;;;5071701;28;20045;-73
2023/06/21 01:02:56;;;;;;;10.88;6.10;;;19.60;99.90;;;;;;5056404;28;20047;-73
2023/06/21 01:05:24;;;;;;;12.27;5.75;;;19.60;99.90;;;;;;5070274;28;20474;-73
2023/06/21 01:08:16;;;;;;;10.95;6.00;;;19.60;99.90;;;;;;5057437;28;20659;-73
2023/06/21 01:11:21;;;;;;;10.88;5.57;;;19.60;99.90;;;;;;5072591;28;20410;-73
2023/06/21 01:14:01;;;;;;;9.50;5.32;;;19.60;99.90;;;;;;5055429;28;20079;-73
2023/06/21 01:16:37;;;;;;;11.27;5.78;;;19.50;99.90;;;;;;5054237;28;20044;-73
2023/06/21 01:19:05;;;;;;;10.10;5.30;;;19.50;99.90;;;;;;5057303;28;20144;-73
2023/06/21 01:21:31;;;;;;;9.02;5.32;;;19.50;99.90;;;;;;5066562;28;20565;-73
2023/06/21 01:24:25;;;;;;;12.35;5.57;;;19.50;99.90;;;;;;5070400;28;20068;-73
2023/06/21 01:27:28;;;;;;;10.95;5.40;;;19.50;99.90;;;;;;5072069;28;20123;-73
2023/06/21 01:29:59;;;;;;;11.15;5.60;;;19.40;99.90;;;;;;5056288;28;20063;-73
2023/06/21 01:32:27;;;;;;;8.85;5.05;;;19.40;99.90;;;;;;5074705;28;20094;-74
2023/06/21 01:34:54;;;;;;;14.38;5.20;;;19.40;99.90;;;;;;5067058;28;20060;-73
2023/06/21 01:37:21;;;;;;;9.02;5.05;;;19.40;99.90;;;;;;5080366;28;20040;-73
2023/06/21 01:39:47;;;;;;;9.75;5.40;;;19.30;99.90;;;;;;5073620;28;20044;-73
2023/06/21 01:42:12;;;;;;;9.02;5.22;;;19.30;99.90;;;;;;5061157;28;20031;-73
2023/06/21 01:44:38;;;;;;;11.25;5.95;;;19.30;99.90;;;;;;5055648;28;20039;-73
2023/06/21 01:47:05;;;;;;;12.75;6.18;;;19.30;99.90;;;;;;5075320;28;20032;-73
2023/06/21 01:49:32;;;;;;;14.20;6.43;;;19.30;99.90;;;;;;5070029;28;20032;-73
2023/06/21 01:51:59;;;;;;;11.85;6.93;;;19.30;99.90;;;;;;5066529;28;20036;-73
2023/06/21 01:54:27;;;;;;;12.48;6.40;;;19.20;99.90;;;;;;5070607;28;20094;-73
2023/06/21 01:56:58;;;;;;;12.30;6.72;;;19.20;99.90;;;;;;5075180;28;20778;-73
2023/06/21 01:59:24;;;;;;;13.93;6.10;;;19.20;99.90;;;;;;5069872;28;20048;-73
2023/06/21 02:01:51;;;;;;;14.38;6.65;;;19.20;99.90;;;;;;5062740;28;20032;-73
2023/06/21 02:04:19;;;;;;;14.50;6.60;;;19.20;99.90;;;;;;5057135;28;20051;-73
2023/06/21 02:06:48;;;;;;;13.32;7.20;;;19.10;99.90;;;;;;5072972;28;20044;-73
2023/06/21 02:09:14;;;;;;;12.57;6.53;;;19.10;99.90;;;;;;5056253;28;20056;-73
2023/06/21 02:11:40;;;;;;;11.88;6.75;;;19.10;99.90;;;;;;5060969;28;20401;-73
2023/06/21 02:14:06;;;;;;;15.18;7.28;;;19.10;99.90;;;;;;5056942;28;20041;-73
2023/06/21 02:16:33;;;;;;;14.13;6.78;;;19.10;99.90;;;;;;5064821;28;20044;-73
2023/06/21 02:18:59;;;;;;;14.15;7.25;;;19.10;99.90;;;;;;5039825;28;20131;-73
2023/06/21 02:21:24;;;;;;;14.63;7.85;;;19.10;99.90;;;;;;5062672;28;20053;-73
2023/06/21 02:23:50;;;;;;;15.05;8.80;;;19.10;99.90;;;;;;5077234;28;20141;-73
2023/06/21 02:26:17;;;;;;;13.65;7.68;;;19.10;99.90;;;;;;5062191;28;20095;-73
2023/06/21 02:28:43;;;;;;;15.15;8.00;;;19.00;99.90;;;;;;5043909;28;20592;-73
2023/06/21 02:31:08;;;;;;;16.83;8.30;;;19.10;99.90;;;;;;5076467;28;20111;-73
2023/06/21 02:33:34;;;;;;;16.40;8.23;;;19.00;99.90;;;;;;5060759;28;20043;-73
2023/06/21 02:36:00;;;;;;;16.08;8.45;;;19.10;99.90;;;;;;5066162;28;20162;-73
2023/06/21 02:38:25;;;;;;;18.80;9.23;;;19.00;99.90;;;;;;5058308;28;20029;-73
2023/06/21 02:40:54;;;;;;;19.17;9.05;;;19.00;99.90;;;;;;5074046;28;20066;-73
2023/06/21 02:43:20;;;;;;;18.05;8.93;;;19.00;99.90;;;;;;5074166;28;20044;-73
2023/06/21 02:45:47;;;;;;;19.63;8.63;;;19.00;99.90;;;;;;5058056;28;20043;-73
2023/06/21 02:48:12;;;;;;;23.10;9.70;;;19.00;99.90;;;;;;5058366;28;20060;-74
2023/06/21 02:50:38;;;;;;;23.58;10.52;;;19.10;99.90;;;;;;5056030;28;21247;-73
2023/06/21 02:53:03;;;;;;;19.38;9.50;;;19.00;99.90;;;;;;5058274;28;20029;-74
2023/06/21 02:55:29;;;;;;;23.80;9.95;;;19.00;99.90;;;;;;5062610;28;20074;-73
2023/06/21 02:57:55;;;;;;;22.13;10.02;;;19.00;99.90;;;;;;5061408;28;20414;-73
2023/06/21 03:00:28;;;;;;;22.63;10.80;;;19.00;99.90;;;;;;5056315;28;20036;-73
2023/06/21 03:03:00;;;;;;;23.88;10.63;;;19.00;99.90;;;;;;5057077;28;20037;-73
2023/06/21 03:05:27;;;;;;;22.15;10.63;;;18.90;99.90;;;;;;5054921;28;20148;-73
2023/06/21 03:07:54;;;;;;;23.27;11.40;;;18.90;99.90;;;;;;5056979;28;20663;-73
2023/06/21 03:10:20;;;;;;;25.42;11.07;;;18.90;99.90;;;;;;5073838;28;20076;-73
2023/06/21 03:12:46;;;;;;;26.38;10.98;;;18.90;99.90;;;;;;5057519;28;20159;-73
2023/06/21 03:15:12;;;;;;;21.80;10.20;;;18.80;99.90;;;;;;5055041;28;20032;-73
2023/06/21 03:17:38;;;;;;;23.25;11.05;;;18.90;99.90;;;;;;5057240;28;20048;-73
2023/06/21 03:20:13;;;;;;;26.52;11.18;;;18.80;99.90;;;;;;5056703;28;20041;-73
2023/06/21 03:22:46;;;;;;;24.95;11.07;;;18.80;99.90;;;;;;5057811;28;20090;-73
2023/06/21 03:25:15;;;;;;;25.25;10.85;;;18.80;99.90;;;;;;5063938;28;20105;-73
2023/06/21 03:27:41;;;;;;;22.75;9.65;;;18.80;99.90;;;;;;5058700;28;20471;-73
2023/06/21 03:30:11;;;;;;;23.25;10.15;;;18.80;99.90;;;;;;5058232;28;20116;-73
2023/06/21 03:32:47;;;;;;;24.77;10.77;;;18.70;99.90;;;;;;5056943;28;20039;-73
2023/06/21 03:35:17;;;;;;;24.83;11.15;;;18.70;99.90;;;;;;5065314;28;21557;-73
2023/06/21 03:37:46;;;;;;;22.35;11.07;;;18.70;99.90;;;;;;5068616;28;20045;-73
2023/06/21 03:40:13;;;;;;;24.17;10.40;;;18.70;99.90;;;;;;5067806;28;20076;-73
2023/06/21 03:42:41;;;;;;;23.05;10.57;;;18.60;99.90;;;;;;5055757;28;20050;-73
2023/06/21 03:45:07;;;;;;;22.80;10.43;;;18.70;99.90;;;;;;5068674;28;20071;-73
2023/06/21 03:47:34;;;;;;;23.88;10.73;;;18.70;99.90;;;;;;5053675;28;20397;-73
2023/06/21 03:50:00;;;;;;;22.33;10.85;;;18.70;99.90;;;;;;5065809;28;20562;-73
2023/06/21 03:52:25;;;;;;;23.58;11.50;;;18.70;99.90;;;;;;5070122;28;20045;-73
2023/06/21 03:54:52;;;;;;;25.20;11.02;;;18.70;99.90;;;;;;5059580;28;20032;-73
2023/06/21 03:57:18;;;;;;;24.38;10.48;;;18.60;99.90;;;;;;5066141;28;20055;-73
2023/06/21 03:59:44;;;;;;;23.35;10.75;;;18.60;99.90;;;;;;5062098;28;20036;-73
2023/06/21 04:02:09;;;;;;;25.05;9.93;;;18.60;99.90;;;;;;5074515;28;20036;-73
2023/06/21 04:04:35;;;;;;;25.75;10.40;;;18.60;99.90;;;;;;5071876;28;20453;-73
2023/06/21 04:07:00;;;;;;;24.30;10.18;;;18.60;99.90;;;;;;5049340;28;20101;-74
2023/06/21 04:09:26;;;;;;;22.95;10.50;;;18.60;99.90;;;;;;5058743;28;20147;-73
2023/06/21 04:11:52;;;;;;;24.52;10.63;;;18.60;99.90;;;;;;5069829;28;20068;-73
2023/06/21 04:14:18;;;;;;;26.90;11.27;;;18.50;99.90;;;;;;5051152;28;20041;-73
2023/06/21 04:16:43;;;;;;;25.42;11.18;;;18.60;99.90;;;;;;5075476;28;20036;-74
2023/06/21 04:19:09;;;;;;;25.00;11.23;;;18.50;99.90;;;;;;5057905;28;20055;-73
2023/06/21 04:21:35;;;;;;;23.45;10.85;;;18.60;99.90;;;;;;5054032;28;20418;-73
2023/06/21 04:24:00;;;;;;;27.38;11.48;;;18.60;99.90;;;;;;5056296;28;20028;-73
2023/06/21 04:26:27;;;;;;;22.75;10.18;;;18.60;99.90;;;;;;5056758;28;20044;-73
2023/06/21 04:28:52;;;;;;;22.00;9.60;;;18.60;99.90;;;;;;5064353;28;20394;-73
2023/06/21 04:31:18;;;;;;;27.95;11.65;;;18.60;99.90;;;;;;5072395;28;20040;-73
2023/06/21 04:33:43;;;;;;;25.95;10.85;;;18.50;99.90;;;;;;5053625;28;20398;-73
2023/06/21 04:36:09;;;;;;;24.05;11.15;;;18.60;99.90;;;;;;5041623;28;20068;-73
2023/06/21 04:38:35;;;;;;;24.63;10.75;;;18.60;99.90;;;;;;5039658;28;20040;-73
2023/06/21 04:41:00;;;;;;;25.60;11.18;;;18.60;99.90;;;;;;5051808;28;20064;-73
2023/06/21 04:43:26;;;;;;;23.63;11.15;;;18.60;99.90;;;;;;5058964;28;20041;-74
2023/06/21 04:45:52;;;;;;;24.98;10.77;;;18.60;99.90;;;;;;5054049;28;20052;-74
2023/06/21 04:48:17;;;;;;;26.30;11.75;;;18.60;99.90;;;;;;5056761;28;20037;-73
2023/06/21 04:50:45;;;;;;;23.50;10.95;;;18.60;99.90;;;;;;5065767;28;20033;-73
2023/06/21 04:53:14;;;;;;;23.58;11.00;;;18.60;99.90;;;;;;5053775;28;20032;-73
2023/06/21 04:55:43;;;;;;;25.42;11.82;;;18.70;99.90;;;;;;5069127;28;20044;-73
2023/06/21 04:58:09;;;;;;;28.55;11.75;;;18.60;99.90;;;;;;5059775;28;20048;-73
2023/06/21 05:00:36;;;;;;;27.15;11.70;;;18.70;99.90;;;;;;5071524;28;20505;-73
2023/06/21 05:03:02;;;;;;;28.65;11.95;;;18.70;99.90;;;;;;5056026;28;20036;-73
2023/06/21 05:05:28;;;;;;;27.05;12.20;;;18.70;99.90;;;;;;5050564;28;20556;-73
2023/06/21 05:07:53;;;;;;;23.98;11.13;;;18.80;99.90;;;;;;5037630;28;20037;-73
2023/06/21 05:10:19;;;;;;;26.35;10.80;;;18.80;99.90;;;;;;5058791;28;20127;-73
2023/06/21 05:12:45;;;;;;;30.98;11.32;;;18.80;99.90;;;;;;5072488;28;20367;-73
2023/06/21 05:15:11;;;;;;;25.50;11.75;;;18.80;99.90;;;;;;5059196;28;20040;-73
2023/06/21 05:17:36;;;;;;;27.00;11.05;;;18.80;99.90;;;;;;5055282;28;20546;-73
2023/06/21 05:20:06;;;;;;;26.13;11.02;;;18.80;99.90;;;;;;5074040;28;20475;-73
2023/06/21 05:22:31;;;;;;;26.02;11.32;;;18.90;99.90;;;;;;5067005;28;20059;-73
2023/06/21 05:24:57;;;;;;;27.30;11.70;;;18.90;99.90;;;;;;5066818;28;20056;-73
2023/06/21 05:27:23;;;;;;;28.65;11.93;;;18.90;99.90;;;;;;5054363;28;20068;-73
2023/06/21 05:29:48;;;;;;;26.92;11.45;;;19.00;99.90;;;;;;5073061;28;20109;-73
2023/06/21 05:32:14;;;;;;;28.73;11.95;;;19.00;99.90;;;;;;5047799;28;20028;-73
2023/06/21 05:34:39;;;;;;;25.25;10.82;;;19.00;99.90;;;;;;5064033;28;20040;-73
2023/06/21 05:37:05;;;;;;;26.35;10.85;;;19.00;99.90;;;;;;5065757;28;20716;-73
2023/06/21 05:39:30;;;;;;;23.73;10.45;;;19.00;99.90;;;;;;5066291;28;20044;-71
2023/06/21 05:41:56;;;;;;;24.98;11.18;;;19.10;99.90;;;;;;5069211;28;20391;-73
2023/06/21 05:44:22;;;;;;;25.10;11.15;;;19.10;99.90;;;;;;5073596;28;21446;-73
2023/06/21 05:46:47;;;;;;;29.95;11.82;;;19.20;99.90;;;;;;5057363;28;20040;-72
2023/06/21 05:49:13;;;;;;;21.88;10.82;;;19.20;99.90;;;;;;5057649;28;20119;-72
2023/06/21 05:51:38;;;;;;;25.67;12.02;;;19.10;99.90;;;;;;5054764;28;20090;-72
2023/06/21 05:54:04;;;;;;;25.35;10.65;;;19.20;99.90;;;;;;5059260;28;20482;-73
2023/06/21 05:56:31;;;;;;;26.92;10.98;;;19.20;99.90;;;;;;5059455;28;20048;-73
2023/06/21 05:58:57;;;;;;;24.13;10.57;;;19.20;99.90;;;;;;5059644;28;20104;-73
2023/06/21 06:01:23;;;;;;;25.88;10.73;;;19.40;99.90;;;;;;5066907;28;20486;-73
2023/06/21 06:03:48;;;;;;;26.38;11.30;;;19.30;99.90;;;;;;5062954;28;20497;-74
2023/06/21 06:06:15;;;;;;;24.20;10.82;;;19.40;99.90;;;;;;5042175;28;20063;-73
2023/06/21 06:08:41;;;;;;;25.08;10.82;;;19.40;99.90;;;;;;5043075;28;20036;-73
2023/06/21 06:11:07;;;;;;;24.20;10.25;;;19.40;99.90;;;;;;5058728;28;20035;-72
2023/06/21 06:13:32;;;;;;;23.58;10.48;;;19.40;99.90;;;;;;5056368;28;20024;-71
2023/06/21 06:15:58;;;;;;;23.27;10.60;;;19.50;99.90;;;;;;5051093;28;20060;-75
2023/06/21 06:18:23;;;;;;;23.00;10.25;;;19.40;99.90;;;;;;5069134;28;20131;-73
2023/06/21 06:20:49;;;;;;;20.40;9.98;;;19.40;99.90;;;;;;5061195;28;20051;-73
2023/06/21 06:23:15;;;;;;;22.42;9.52;;;19.50;99.90;;;;;;5073816;28;20189;-73
2023/06/21 06:25:40;;;;;;;22.90;10.18;;;19.50;99.90;;;;;;5056979;28;20048;-73
2023/06/21 06:28:07;;;;;;;19.10;8.60;;;19.60;99.90;;;;;;5069201;28;20049;-72
2023/06/21 06:30:33;;;;;;;18.80;8.93;;;19.70;99.90;;;;;;5049723;28;20489;-73
2023/06/21 06:32:58;;;;;;;17.33;8.13;;;19.70;99.90;;;;;;5067161;28;20097;-73
2023/06/21 06:35:24;;;;;;;17.77;7.72;;;19.80;99.90;;;;;;5081341;28;20040;-73
2023/06/21 06:37:50;;;;;;;16.40;7.90;;;20.20;99.90;;;;;;5055345;28;20409;-72
2023/06/21 06:40:16;;;;;;;15.40;7.38;;;20.80;99.90;;;;;;5070713;28;20051;-73
2023/06/21 06:42:41;;;;;;;15.68;7.40;;;21.30;99.90;;;;;;5070700;28;20076;-73
2023/06/21 06:45:07;;;;;;;16.45;7.45;;;21.80;99.90;;;;;;5068398;28;20080;-73
2023/06/21 06:47:33;;;;;;;13.73;6.78;;;22.50;99.90;;;;;;5077440;28;20114;-73
2023/06/21 06:49:58;;;;;;;16.63;7.68;;;23.10;99.90;;;;;;5070534;28;20127;-73
2023/06/21 06:52:24;;;;;;;15.88;6.05;;;23.50;99.90;;;;;;5066474;28;20119;-73
2023/06/21 06:54:50;;;;;;;12.88;5.95;;;23.50;99.90;;;;;;5072513;28;20047;-73
2023/06/21 06:57:16;;;;;;;11.73;4.68;;;23.10;99.90;;;;;;5065701;28;20055;-73
2023/06/21 06:59:41;;;;;;;11.10;4.63;;;22.80;99.90;;;;;;5077429;28;20043;-74
2023/06/21 07:02:07;;;;;;;8.38;3.97;;;22.40;99.90;;;;;;5057158;28;20042;-73
2023/06/21 07:04:33;;;;;;;8.75;4.72;;;22.20;99.90;;;;;;5066343;28;20035;-73
2023/06/21 07:07:01;;;;;;;8.90;4.55;;;21.90;99.90;;;;;;5078860;28;20029;-73
2023/06/21 07:09:27;;;;;;;10.05;4.60;;;21.80;99.90;;;;;;5072998;28;20474;-73
2023/06/21 07:11:56;;;;;;;10.82;4.55;;;21.70;99.90;;;;;;5072973;28;20086;-74
2023/06/21 07:14:23;;;;;;;9.70;4.28;;;21.50;99.90;;;;;;5068987;28;20041;-73
2023/06/21 07:16:50;;;;;;;9.15;4.07;;;21.50;99.90;;;;;;5064118;28;20594;-73
2023/06/21 07:19:16;;;;;;;8.52;4.15;;;21.50;99.90;;;;;;5070898;28;20067;-74
2023/06/21 07:21:42;;;;;;;8.23;3.92;;;21.40;99.90;;;;;;5068428;28;20444;-74
2023/06/21 07:24:07;;;;;;;9.50;3.60;;;21.30;99.90;;;;;;5071936;28;20048;-72
2023/06/21 07:26:33;;;;;;;6.57;3.15;;;21.20;99.90;;;;;;5070959;28;20036;-73
2023/06/21 07:28:59;;;;;;;7.63;3.47;;;21.30;99.90;;;;;;5068381;28;20043;-74
2023/06/21 07:31:25;;;;;;;8.55;3.60;;;21.20;99.90;;;;;;5073065;28;20695;-73
2023/06/21 07:33:56;;;;;;;5.60;2.97;;;21.20;99.90;;;;;;5068332;28;20039;-73
2023/06/21 07:36:21;;;;;;;5.18;2.72;;;21.20;99.90;;;;;;5067229;28;20048;-73
2023/06/21 07:38:48;;;;;;;6.72;3.30;;;21.30;99.90;;;;;;5070714;28;20413;-72
2023/06/21 07:41:14;;;;;;;6.00;2.92;;;21.20;99.90;;;;;;5052748;28;20070;-72
2023/06/21 07:43:40;;;;;;;8.57;3.03;;;21.20;99.90;;;;;;5078298;28;20048;-72
2023/06/21 07:46:06;;;;;;;6.22;3.13;;;21.30;99.90;;;;;;5060376;28;20044;-72
2023/06/21 07:48:32;;;;;;;5.93;3.05;;;21.30;99.90;;;;;;5070449;28;20519;-72
2023/06/21 07:50:57;;;;;;;6.07;3.10;;;21.30;99.90;;;;;;5071644;28;20477;-72
2023/06/21 07:53:23;;;;;;;8.13;3.28;;;21.20;99.90;;;;;;5071834;28;20036;-72
2023/06/21 07:55:48;;;;;;;7.43;4.00;;;21.30;99.90;;;;;;5068342;28;20064;-72
2023/06/21 07:58:14;;;;;;;6.45;3.28;;;21.30;99.90;;;;;;5070187;28;20460;-72
2023/06/21 08:00:39;;;;;;;5.65;3.03;;;21.30;99.90;;;;;;5063646;28;20036;-72
2023/06/21 08:03:05;;;;;;;7.32;3.13;;;21.30;99.90;;;;;;5067105;28;20036;-72
2023/06/21 08:05:31;;;;;;;6.30;3.10;;;21.30;99.90;;;;;;5063243;28;20373;-72
2023/06/21 08:08:01;;;;;;;6.95;3.20;;;21.30;99.90;;;;;;5069774;28;20035;-72
2023/06/21 08:10:27;;;;;;;5.82;3.40;;;21.40;99.90;;;;;;5064701;28;20483;-72
2023/06/21 08:12:52;;;;;;;6.05;2.95;;;21.40;99.90;;;;;;5082619;28;20158;-72
2023/06/21 08:15:18;;;;;;;6.43;2.50;;;21.30;99.90;;;;;;5078592;28;20524;-72
2023/06/21 08:17:43;;;;;;;7.85;2.53;;;21.40;99.90;;;;;;5073916;28;20972;-72
2023/06/21 08:20:10;;;;;;;5.53;2.75;;;21.40;99.90;;;;;;5054714;28;20063;-72
2023/06/21 08:22:35;;;;;;;6.32;2.70;;;21.50;99.90;;;;;;5058487;28;20040;-72
2023/06/21 08:25:01;;;;;;;4.47;2.47;;;21.50;99.90;;;;;;5055636;28;20528;-75
2023/06/21 08:27:27;;;;;;;6.80;3.05;;;21.70;99.90;;;;;;5073635;28;20463;-72
2023/06/21 08:29:52;;;;;;;6.85;3.03;;;21.70;99.90;;;;;;5062124;28;20072;-71
2023/06/21 08:32:19;;;;;;;5.65;2.92;;;21.70;99.90;;;;;;5059671;28;20047;-69
2023/06/21 08:34:46;;;;;;;4.22;2.15;;;21.70;99.90;;;;;;5060879;28;20083;-70
2023/06/21 08:37:11;;;;;;;5.15;2.45;;;21.70;99.90;;;;;;5059982;28;20044;-69
2023/06/21 08:39:37;;;;;;;5.30;2.58;;;21.80;99.90;;;;;;5064721;28;20045;-69
2023/06/21 08:42:03;;;;;;;4.47;2.58;;;21.80;99.90;;;;;;5061406;28;20040;-69
2023/06/21 08:44:30;;;;;;;4.25;2.05;;;21.70;99.90;;;;;;5061452;28;20039;-69
2023/06/21 08:46:56;;;;;;;6.03;2.45;;;21.70;99.90;;;;;;5082505;28;20402;-69
2023/06/21 08:49:26;;;;;;;4.28;2.25;;;21.80;99.90;;;;;;5070588;28;20137;-69
2023/06/21 08:51:53;;;;;;;5.47;2.42;;;21.80;99.90;;;;;;5068312;28;20040;-69
2023/06/21 08:54:26;;;;;;;3.17;2.05;;;21.90;99.90;;;;;;5070689;28;20166;-69
2023/06/21 08:56:59;;;;;;;5.10;2.17;;;21.90;99.90;;;;;;5069612;28;20530;-68
2023/06/21 08:59:32;;;;;;;4.32;1.77;;;22.00;99.90;;;;;;5087955;28;20090;-69
2023/06/21 09:02:08;;;;;;;5.40;2.30;;;22.10;99.90;;;;;;5075639;28;20378;-70
2023/06/21 09:04:43;;;;;;;3.65;1.77;;;22.20;99.90;;;;;;5077367;28;20041;-69
2023/06/21 09:07:10;;;;;;;3.83;1.45;;;22.20;99.90;;;;;;5069232;28;20032;-69
2023/06/21 09:09:37;;;;;;;5.03;1.90;;;22.20;99.90;;;;;;5069347;28;20316;-69
2023/06/21 09:12:03;;;;;;;3.03;1.50;;;22.20;99.90;;;;;;5065220;28;20077;-69
2023/06/21 09:14:31;;;;;;;3.55;1.42;;;22.20;99.90;;;;;;5049870;28;20048;-69
2023/06/21 09:17:00;;;;;;;3.13;1.77;;;22.20;99.90;;;;;;5069884;28;20500;-69
2023/06/21 09:19:26;;;;;;;3.45;2.00;;;22.20;99.90;;;;;;5069687;28;20041;-68
2023/06/21 09:21:54;;;;;;;4.07;1.90;;;22.20;99.90;;;;;;5071421;28;20657;-69
2023/06/21 09:24:20;;;;;;;5.88;1.98;;;22.30;99.90;;;;;;5068731;28;20098;-70
2023/06/21 09:26:46;;;;;;;3.28;1.30;;;22.20;99.90;;;;;;5071058;28;20036;-69
2023/06/21 09:29:11;;;;;;;3.08;1.50;;;22.30;99.90;;;;;;5067899;28;20396;-69
2023/06/21 09:31:37;;;;;;;2.40;1.30;;;22.40;99.90;;;;;;5077403;28;20119;-69
2023/06/21 09:34:02;;;;;;;3.55;1.55;;;22.40;99.90;;;;;;5080308;28;20067;-69
2023/06/21 09:36:28;;;;;;;2.47;1.25;;;22.50;99.90;;;;;;5073037;28;20531;-70
2023/06/21 09:39:07;;;;;;;2.92;1.20;;;22.60;99.90;;;;;;5073573;28;20039;-69
2023/06/21 09:41:33;;;;;;;3.72;1.50;;;22.50;99.90;;;;;;5054423;28;20071;-70
2023/06/21 09:43:59;;;;;;;3.45;1.58;;;22.40;99.90;;;;;;5070374;28;20466;-70
2023/06/21 09:46:24;;;;;;;4.53;1.90;;;22.40;99.90;;;;;;5063833;28;20052;-69
2023/06/21 09:48:50;;;;;;;3.90;1.63;;;22.40;99.90;;;;;;5078446;28;20051;-69
2023/06/21 09:51:18;;;;;;;2.60;1.55;;;22.50;99.90;;;;;;5071011;28;20044;-69
2023/06/21 09:53:49;;;;;;;3.60;1.70;;;22.50;99.90;;;;;;5071377;28;20459;-69
2023/06/21 09:56:19;;;;;;;3.75;1.95;;;22.50;99.90;;;;;;5071743;28;20440;-70
2023/06/21 09:58:47;;;;;;;3.75;1.90;;;22.50;99.90;;;;;;5066065;28;20064;-70
2023/06/21 10:01:16;;;;;;;3.70;1.42;;;22.60;99.90;;;;;;5078440;28;20044;-69
2023/06/21 10:03:46;;;;;;;2.97;1.42;;;22.60;99.90;;;;;;5078421;28;20048;-69
2023/06/21 10:06:21;;;;;;;3.38;1.95;;;22.70;99.90;;;;;;5067299;28;20489;-69
2023/06/21 10:08:51;;;;;;;4.25;1.73;;;22.70;99.90;;;;;;5055365;28;20384;-69
2023/06/21 10:11:17;;;;;;;4.35;2.13;;;22.70;99.90;;;;;;5059869;28;20387;-69
2023/06/21 10:13:42;;;;;;;3.25;1.65;;;22.80;99.90;;;;;;5051178;28;20044;-70
2023/06/21 10:16:08;;;;;;;3.08;1.48;;;22.90;99.90;;;;;;5052962;28;20043;-70
2023/06/21 10:18:35;;;;;;;3.25;1.67;;;22.90;99.90;;;;;;5051446;28;20033;-69
2023/06/21 10:21:08;;;;;;;3.03;1.30;;;23.00;99.90;;;;;;5058358;28;20028;-69
2023/06/21 10:23:37;;;;;;;3.83;1.48;;;23.10;99.90;;;;;;5058980;28;20040;-70
2023/06/21 10:26:07;;;;;;;2.97;1.35;;;23.20;99.90;;;;;;5067412;28;20071;-70
2023/06/21 10:28:36;;;;;;;4.05;1.65;;;23.30;99.90;;;;;;5078598;28;20152;-69
2023/06/21 10:31:04;;;;;;;3.97;1.30;;;23.20;99.90;;;;;;5066086;28;20038;-69
2023/06/21 10:33:31;;;;;;;3.80;1.50;;;23.20;99.90;;;;;;5066867;28;20036;-69
2023/06/21 10:36:00;;;;;;;2.83;1.40;;;23.40;99.90;;;;;;5061797;28;20052;-69
2023/06/21 10:38:46;;;;;;;3.50;1.50;;;23.50;99.90;;;;;;5053869;28;20041;-69
2023/06/21 10:41:17;;;;;;;4.70;1.23;;;23.50;99.60;;;;;;5054276;28;20036;-69
2023/06/21 10:43:43;;;;;;;2.70;1.33;;;23.60;99.90;;;;;;5056803;28;20040;-69
2023/06/21 10:46:10;;;;;;;4.53;1.50;;;23.50;99.80;;;;;;5053539;28;20049;-70
2023/06/21 10:48:37;;;;;;;1.80;0.90;;;23.50;99.70;;;;;;5067858;28;20041;-69
2023/06/21 10:51:04;;;;;;;3.33;1.77;;;23.40;99.80;;;;;;5057378;28;20033;-69
2023/06/21 10:53:34;;;;;;;2.97;1.50;;;23.50;99.80;;;;;;5056017;28;20052;-69
2023/06/21 10:56:05;;;;;;;3.30;1.40;;;23.50;99.60;;;;;;5053685;28;20041;-69
2023/06/21 10:58:31;;;;;;;3.45;1.05;;;23.50;99.60;;;;;;5071791;28;20051;-69
2023/06/21 11:00:58;;;;;;;3.13;0.95;;;23.40;99.30;;;;;;5061250;28;20036;-69
2023/06/21 11:03:26;;;;;;;3.22;1.10;;;23.60;99.30;;;;;;5067123;28;20050;-69
2023/06/21 11:06:28;;;;;;;2.60;1.40;;;23.70;99.10;;;;;;5057608;28;20080;-69
2023/06/21 11:08:55;;;;;;;3.38;1.30;;;23.80;98.50;;;;;;5055188;28;20044;-69
2023/06/21 11:11:36;;;;;;;3.38;1.40;;;23.90;98.70;;;;;;5055984;28;20047;-69
2023/06/21 11:14:03;;;;;;;2.78;1.33;;;23.90;98.40;;;;;;5060243;28;20052;-70
2023/06/21 11:16:32;;;;;;;2.92;1.58;;;24.00;98.60;;;;;;5061637;28;20044;-70
2023/06/21 11:19:13;;;;;;;5.13;1.85;;;24.00;98.50;;;;;;5060350;28;20194;-71
2023/06/21 11:21:49;;;;;;;2.30;1.00;;;23.90;98.30;;;;;;5060835;28;20075;-71
2023/06/21 11:24:16;;;;;;;2.75;1.10;;;23.80;98.30;;;;;;5040475;28;20163;-70
2023/06/21 11:27:02;;;;;;;2.88;1.30;;;23.80;98.50;;;;;;5051387;28;20053;-70
2023/06/21 11:29:34;;;;;;;3.40;1.33;;;23.80;97.40;;;;;;5059120;28;20067;-70
2023/06/21 11:32:13;;;;;;;2.47;1.15;;;23.70;98.20;;;;;;5057645;28;20132;-70
2023/06/21 11:34:56;;;;;;;1.67;0.80;;;23.80;98.20;;;;;;5051876;28;21301;-70
2023/06/21 11:37:41;;;;;;;2.30;1.17;;;23.80;98.30;;;;;;5051678;28;20024;-70
2023/06/21 11:40:09;;;;;;;2.27;1.03;;;23.90;97.90;;;;;;5056071;28;20194;-70
2023/06/21 11:42:41;;;;;;;2.08;0.80;;;23.90;98.20;;;;;;5061738;28;20116;-70
2023/06/21 11:45:18;;;;;;;2.08;1.02;;;23.90;98.00;;;;;;5054455;28;20036;-70
2023/06/21 11:48:03;;;;;;;2.75;1.25;;;24.00;97.50;;;;;;5076336;28;20346;-70
2023/06/21 11:50:34;;;;;;;2.88;1.00;;;24.00;96.90;;;;;;5055104;28;20185;-70
2023/06/21 11:53:30;;;;;;;2.75;1.30;;;24.10;97.50;;;;;;5064020;28;20551;-70
2023/06/21 11:56:00;;;;;;;3.08;1.27;;;24.20;96.80;;;;;;5060520;28;20096;-70
2023/06/21 11:58:27;;;;;;;2.28;1.10;;;24.20;97.30;;;;;;5059413;28;20497;-70
2023/06/21 12:00:53;;;;;;;1.75;0.70;;;24.20;97.50;;;;;;5062693;28;20705;-70
2023/06/21 12:03:26;;;;;;;1.65;0.80;;;24.30;96.70;;;;;;5075921;28;20394;-70
2023/06/21 12:05:54;;;;;;;2.15;0.65;;;24.30;96.20;;;;;;5073819;28;20041;-70
2023/06/21 12:08:27;;;;;;;3.15;1.10;;;24.40;96.20;;;;;;5056050;28;20032;-70
2023/06/21 12:10:56;;;;;;;1.80;0.80;;;24.40;96.10;;;;;;5050252;28;20029;-70
2023/06/21 12:13:22;;;;;;;3.97;1.02;;;24.40;95.60;;;;;;5057951;28;20113;-70
2023/06/21 12:15:59;;;;;;;2.63;1.05;;;24.50;95.60;;;;;;5060594;28;20048;-70
2023/06/21 12:18:27;;;;;;;2.13;0.88;;;24.50;95.20;;;;;;5051378;28;20491;-70
2023/06/21 12:20:58;;;;;;;1.65;0.77;;;24.50;95.30;;;;;;5055911;28;20047;-70
2023/06/21 12:23:25;;;;;;;2.17;0.88;;;24.50;94.90;;;;;;5059878;28;20114;-70
2023/06/21 12:25:53;;;;;;;1.75;0.80;;;24.40;95.20;;;;;;5054498;28;20092;-70
2023/06/21 12:28:21;;;;;;;2.22;1.10;;;24.40;95.20;;;;;;5064362;28;20498;-70
2023/06/21 12:30:48;;;;;;;2.78;1.00;;;24.40;94.90;;;;;;5058094;28;20040;-70
2023/06/21 12:33:14;;;;;;;2.53;1.30;;;24.40;94.90;;;;;;5058081;28;20033;-70
2023/06/21 12:35:40;;;;;;;3.35;1.10;;;24.40;94.90;;;;;;5061660;28;20510;-70
2023/06/21 12:38:13;;;;;;;2.30;1.05;;;24.40;94.90;;;;;;5060026;28;20119;-71
2023/06/21 12:40:54;;;;;;;3.05;1.45;;;24.50;94.90;;;;;;5069959;28;20036;-70
2023/06/21 12:43:42;;;;;;;3.67;1.60;;;24.60;94.50;;;;;;5060997;28;20174;-69